sensor_id;sensor_type;location;lat;lon;timestamp;temperature;humidity
3713;DHT22;1872;51.406;6.856;2023-11-18T00:01:26;4.00;99.90
3713;DHT22;1872;51.406;6.856;2023-11-18T00:03:56;4.00;99.90
3713;DHT22;1872;51.406;6.856;2023-11-18T00:06:22;4.00;99.90
3713;DHT22;1872;51.406;6.856;2023-11-18T00:08:48;4.00;99.90
3713;DHT22;1872;51.406;6.856;2023-11-18T00:11:13;4.00;99.90
3713;DHT22;1872;51.406;6.856;2023-11-18T00:13:39;4.00;99.90
3713;DHT22;1872;51.406;6.856;2023-11-18T00:16:06;4.10;99.90
3713;DHT22;1872;51.406;6.856;2023-11-18T00:18:31;4.10;99.90
3713;DHT22;1872;51.406;6.856;2023-11-18T00:20:58;4.20;99.90
3713;DHT22;1872;51.406;6.856;2023-11-18T00:23:23;4.20;99.90
3713;DHT22;1872;51.406;6.856;2023-11-18T00:25:49;4.20;99.90
3713;DHT22;1872;51.406;6.856;2023-11-18T00:28:15;4.20;99.90
3713;DHT22;1872;51.406;6.856;2023-11-18T00:30:41;4.30;99.90
3713;DHT22;1872;51.406;6.856;2023-11-18T00:33:12;4.30;99.90
3713;DHT22;1872;51.406;6.856;2023-11-18T00:35:38;4.30;99.90
3713;DHT22;1872;51.406;6.856;2023-11-18T00:38:03;4.30;99.90
3713;DHT22;1872;51.406;6.856;2023-11-18T00:40:29;4.30;99.90
3713;DHT22;1872;51.406;6.856;2023-11-18T00:42:55;4.30;99.90
3713;DHT22;1872;51.406;6.856;2023-11-18T00:45:21;4.30;99.90
3713;DHT22;1872;51.406;6.856;2023-11-18T00:47:47;4.30;99.90
3713;DHT22;1872;51.406;6.856;2023-11-18T00:50:12;4.30;99.90
3713;DHT22;1872;51.406;6.856;2023-11-18T00:52:39;4.30;99.90
3713;DHT22;1872;51.406;6.856;2023-11-18T00:55:07;4.20;99.90
3713;DHT22;1872;51.406;6.856;2023-11-18T00:57:34;4.20;99.90
3713;DHT22;1872;51.406;6.856;2023-11-18T01:00:00;4.20;99.90
3713;DHT22;1872;51.406;6.856;2023-11-18T01:02:25;4.20;99.90
3713;DHT22;1872;51.406;6.856;2023-11-18T01:04:52;4.10;99.90
3713;DHT22;1872;51.406;6.856;2023-11-18T01:07:17;4.10;99.90
3713;DHT22;1872;51.406;6.856;2023-11-18T01:09:43;4.10;99.90
3713;DHT22;1872;51.406;6.856;2023-11-18T01:12:08;4.10;99.90
3713;DHT22;1872;51.406;6.856;2023-11-18T01:14:37;4.10;99.90
3713;DHT22;1872;51.406;6.856;2023-11-18T01:17:04;4.10;99.90
3713;DHT22;1872;51.406;6.856;2023-11-18T01:19:41;4.10;99.90
3713;DHT22;1872;51.406;6.856;2023-11-18T01:22:07;4.10;99.90
3713;DHT22;1872;51.406;6.856;2023-11-18T01:24:34;4.20;99.90
3713;DHT22;1872;51.406;6.856;2023-11-18T01:27:00;4.30;99.90
3713;DHT22;1872;51.406;6.856;2023-11-18T01:29:26;4.30;99.90
3713;DHT22;1872;51.406;6.856;2023-11-18T01:31:52;4.30;99.90
3713;DHT22;1872;51.406;6.856;2023-11-18T01:34:19;4.30;99.90
3713;DHT22;1872;51.406;6.856;2023-11-18T01:36:49;4.30;99.90
3713;DHT22;1872;51.406;6.856;2023-11-18T01:39:16;4.30;99.90
3713;DHT22;1872;51.406;6.856;2023-11-18T01:41:43;4.30;99.90
3713;DHT22;1872;51.406;6.856;2023-11-18T01:44:10;4.30;99.90
3713;DHT22;1872;51.406;6.856;2023-11-18T01:46:36;4.30;99.90
3713;DHT22;1872;51.406;6.856;2023-11-18T01:49:03;4.30;99.90
3713;DHT22;1872;51.406;6.856;2023-11-18T01:51:30;4.20;99.90
3713;DHT22;1872;51.406;6.856;2023-11-18T01:53:57;4.20;99.90
3713;DHT22;1872;51.406;6.856;2023-11-18T01:56:26;4.20;99.90
3713;DHT22;1872;51.406;6.856;2023-11-18T01:58:52;4.20;99.90
3713;DHT22;1872;51.406;6.856;2023-11-18T02:01:20;4.20;99.90
3713;DHT22;1872;51.406;6.856;2023-11-18T02:03:47;4.20;99.90
3713;DHT22;1872;51.406;6.856;2023-11-18T02:06:13;4.20;99.90
3713;DHT22;1872;51.406;6.856;2023-11-18T02:08:39;4.20;99.90
3713;DHT22;1872;51.406;6.856;2023-11-18T02:11:20;4.10;99.90
3713;DHT22;1872;51.406;6.856;2023-11-18T02:13:48;4.10;99.90
3713;DHT22;1872;51.406;6.856;2023-11-18T02:16:40;4.10;99.90
3713;DHT22;1872;51.406;6.856;2023-11-18T02:19:26;4.10;99.90
3713;DHT22;1872;51.406;6.856;2023-11-18T02:21:52;4.10;99.90
3713;DHT22;1872;51.406;6.856;2023-11-18T02:24:45;4.00;99.90
3713;DHT22;1872;51.406;6.856;2023-11-18T02:27:11;4.10;99.90
3713;DHT22;1872;51.406;6.856;2023-11-18T02:29:40;4.20;99.90
3713;DHT22;1872;51.406;6.856;2023-11-18T02:32:36;4.20;99.90
3713;DHT22;1872;51.406;6.856;2023-11-18T02:37:39;4.30;99.90
3713;DHT22;1872;51.406;6.856;2023-11-18T02:40:08;4.30;99.90
3713;DHT22;1872;51.406;6.856;2023-11-18T02:42:48;4.30;99.90
3713;DHT22;1872;51.406;6.856;2023-11-18T02:45:18;4.30;99.90
3713;DHT22;1872;51.406;6.856;2023-11-18T02:47:45;4.40;99.90
3713;DHT22;1872;51.406;6.856;2023-11-18T02:50:11;4.40;99.90
3713;DHT22;1872;51.406;6.856;2023-11-18T02:52:37;4.40;99.90
3713;DHT22;1872;51.406;6.856;2023-11-18T02:55:04;4.50;99.90
3713;DHT22;1872;51.406;6.856;2023-11-18T02:57:32;4.50;99.90
3713;DHT22;1872;51.406;6.856;2023-11-18T02:59:58;4.50;99.90
3713;DHT22;1872;51.406;6.856;2023-11-18T03:02:28;4.50;99.90
3713;DHT22;1872;51.406;6.856;2023-11-18T03:05:00;4.50;99.90
3713;DHT22;1872;51.406;6.856;2023-11-18T03:07:26;4.50;99.90
3713;DHT22;1872;51.406;6.856;2023-11-18T03:09:55;4.50;99.90
3713;DHT22;1872;51.406;6.856;2023-11-18T03:12:25;4.60;99.90
3713;DHT22;1872;51.406;6.856;2023-11-18T03:14:53;4.60;99.90
3713;DHT22;1872;51.406;6.856;2023-11-18T03:17:31;4.60;99.90
3713;DHT22;1872;51.406;6.856;2023-11-18T03:19:56;4.60;99.90
3713;DHT22;1872;51.406;6.856;2023-11-18T03:22:22;4.60;99.90
3713;DHT22;1872;51.406;6.856;2023-11-18T03:24:49;4.60;99.90
3713;DHT22;1872;51.406;6.856;2023-11-18T03:27:14;4.60;99.90
3713;DHT22;1872;51.406;6.856;2023-11-18T03:29:40;4.60;99.90
3713;DHT22;1872;51.406;6.856;2023-11-18T03:32:06;4.50;99.90
3713;DHT22;1872;51.406;6.856;2023-11-18T03:34:32;4.50;99.90
3713;DHT22;1872;51.406;6.856;2023-11-18T03:36:58;4.60;99.90
3713;DHT22;1872;51.406;6.856;2023-11-18T03:39:23;4.50;99.90
3713;DHT22;1872;51.406;6.856;2023-11-18T03:41:49;4.60;99.90
3713;DHT22;1872;51.406;6.856;2023-11-18T03:44:15;4.60;99.90
3713;DHT22;1872;51.406;6.856;2023-11-18T03:46:42;4.60;99.90
3713;DHT22;1872;51.406;6.856;2023-11-18T03:49:08;4.60;99.90
3713;DHT22;1872;51.406;6.856;2023-11-18T03:51:33;4.60;99.90
3713;DHT22;1872;51.406;6.856;2023-11-18T03:53:59;4.60;99.90
3713;DHT22;1872;51.406;6.856;2023-11-18T03:56:24;4.60;99.90
3713;DHT22;1872;51.406;6.856;2023-11-18T03:58:54;4.60;99.90
3713;DHT22;1872;51.406;6.856;2023-11-18T04:01:24;4.60;99.90
3713;DHT22;1872;51.406;6.856;2023-11-18T04:03:52;4.60;99.90
3713;DHT22;1872;51.406;6.856;2023-11-18T04:06:21;4.60;99.90
3713;DHT22;1872;51.406;6.856;2023-11-18T04:08:48;4.60;99.90
3713;DHT22;1872;51.406;6.856;2023-11-18T04:11:19;4.60;99.90
3713;DHT22;1872;51.406;6.856;2023-11-18T04:13:45;4.70;99.90
3713;DHT22;1872;51.406;6.856;2023-11-18T04:16:12;4.70;99.90
3713;DHT22;1872;51.406;6.856;2023-11-18T04:18:39;4.70;99.90
3713;DHT22;1872;51.406;6.856;2023-11-18T04:21:08;4.70;99.90
3713;DHT22;1872;51.406;6.856;2023-11-18T04:23:37;4.80;99.90
3713;DHT22;1872;51.406;6.856;2023-11-18T04:26:07;4.80;99.90
3713;DHT22;1872;51.406;6.856;2023-11-18T04:28:36;4.80;99.90
3713;DHT22;1872;51.406;6.856;2023-11-18T04:31:05;4.80;99.90
3713;DHT22;1872;51.406;6.856;2023-11-18T04:33:33;4.80;99.90
3713;DHT22;1872;51.406;6.856;2023-11-18T04:35:59;4.80;99.90
3713;DHT22;1872;51.406;6.856;2023-11-18T04:38:27;4.80;99.90
3713;DHT22;1872;51.406;6.856;2023-11-18T04:40:53;4.80;99.90
3713;DHT22;1872;51.406;6.856;2023-11-18T04:43:22;4.80;99.90
3713;DHT22;1872;51.406;6.856;2023-11-18T04:45:49;4.70;99.90
3713;DHT22;1872;51.406;6.856;2023-11-18T04:48:15;4.70;99.90
3713;DHT22;1872;51.406;6.856;2023-11-18T04:50:43;4.70;99.90
3713;DHT22;1872;51.406;6.856;2023-11-18T04:53:09;4.70;99.90
3713;DHT22;1872;51.406;6.856;2023-11-18T04:55:36;4.60;99.90
3713;DHT22;1872;51.406;6.856;2023-11-18T04:58:02;4.60;99.90
3713;DHT22;1872;51.406;6.856;2023-11-18T05:00:28;4.60;99.90
3713;DHT22;1872;51.406;6.856;2023-11-18T05:02:54;4.60;99.90
3713;DHT22;1872;51.406;6.856;2023-11-18T05:05:20;4.60;99.90
3713;DHT22;1872;51.406;6.856;2023-11-18T05:07:47;4.60;99.90
3713;DHT22;1872;51.406;6.856;2023-11-18T05:10:13;4.60;99.90
3713;DHT22;1872;51.406;6.856;2023-11-18T05:12:39;4.60;99.90
3713;DHT22;1872;51.406;6.856;2023-11-18T05:15:09;4.60;99.90
3713;DHT22;1872;51.406;6.856;2023-11-18T05:17:36;4.70;99.90
3713;DHT22;1872;51.406;6.856;2023-11-18T05:20:05;4.60;99.90
3713;DHT22;1872;51.406;6.856;2023-11-18T05:22:34;4.60;99.90
3713;DHT22;1872;51.406;6.856;2023-11-18T05:25:00;4.70;99.90
3713;DHT22;1872;51.406;6.856;2023-11-18T05:27:36;4.70;99.90
3713;DHT22;1872;51.406;6.856;2023-11-18T05:30:02;4.70;99.90
3713;DHT22;1872;51.406;6.856;2023-11-18T05:32:30;4.70;99.90
3713;DHT22;1872;51.406;6.856;2023-11-18T05:34:56;4.70;99.90
3713;DHT22;1872;51.406;6.856;2023-11-18T05:37:23;4.70;99.90
3713;DHT22;1872;51.406;6.856;2023-11-18T05:39:51;4.70;99.90
3713;DHT22;1872;51.406;6.856;2023-11-18T05:42:27;4.80;99.90
3713;DHT22;1872;51.406;6.856;2023-11-18T05:44:53;4.80;99.90
3713;DHT22;1872;51.406;6.856;2023-11-18T05:47:27;4.80;99.90
3713;DHT22;1872;51.406;6.856;2023-11-18T05:49:54;4.80;99.90
3713;DHT22;1872;51.406;6.856;2023-11-18T05:52:23;4.90;99.90
3713;DHT22;1872;51.406;6.856;2023-11-18T05:54:48;4.90;99.90
3713;DHT22;1872;51.406;6.856;2023-11-18T05:57:18;4.90;99.90
3713;DHT22;1872;51.406;6.856;2023-11-18T05:59:45;5.00;99.90
3713;DHT22;1872;51.406;6.856;2023-11-18T06:02:13;5.00;99.90
3713;DHT22;1872;51.406;6.856;2023-11-18T06:04:44;5.00;99.90
3713;DHT22;1872;51.406;6.856;2023-11-18T06:07:09;5.00;99.90
3713;DHT22;1872;51.406;6.856;2023-11-18T06:09:35;5.00;99.90
3713;DHT22;1872;51.406;6.856;2023-11-18T06:12:00;5.00;99.90
3713;DHT22;1872;51.406;6.856;2023-11-18T06:14:27;5.10;99.90
3713;DHT22;1872;51.406;6.856;2023-11-18T06:16:53;5.10;99.90
3713;DHT22;1872;51.406;6.856;2023-11-18T06:19:19;5.10;99.90
3713;DHT22;1872;51.406;6.856;2023-11-18T06:21:46;5.10;99.90
3713;DHT22;1872;51.406;6.856;2023-11-18T06:24:12;5.10;99.90
3713;DHT22;1872;51.406;6.856;2023-11-18T06:26:40;5.10;99.90
3713;DHT22;1872;51.406;6.856;2023-11-18T06:29:07;5.10;99.90
3713;DHT22;1872;51.406;6.856;2023-11-18T06:31:54;5.20;99.90
3713;DHT22;1872;51.406;6.856;2023-11-18T06:34:19;5.20;99.90
3713;DHT22;1872;51.406;6.856;2023-11-18T06:36:46;5.20;99.90
3713;DHT22;1872;51.406;6.856;2023-11-18T06:39:11;5.30;99.90
3713;DHT22;1872;51.406;6.856;2023-11-18T06:41:41;5.30;99.90
3713;DHT22;1872;51.406;6.856;2023-11-18T06:44:14;5.30;99.90
3713;DHT22;1872;51.406;6.856;2023-11-18T06:46:43;5.30;99.90
3713;DHT22;1872;51.406;6.856;2023-11-18T06:49:09;5.30;99.90
3713;DHT22;1872;51.406;6.856;2023-11-18T06:51:41;5.30;99.90
3713;DHT22;1872;51.406;6.856;2023-11-18T06:54:07;5.40;99.90
3713;DHT22;1872;51.406;6.856;2023-11-18T06:56:37;5.40;99.90
3713;DHT22;1872;51.406;6.856;2023-11-18T06:59:06;5.40;99.90
3713;DHT22;1872;51.406;6.856;2023-11-18T07:01:35;5.40;99.90
3713;DHT22;1872;51.406;6.856;2023-11-18T07:04:01;5.40;99.90
3713;DHT22;1872;51.406;6.856;2023-11-18T07:06:27;5.40;99.90
3713;DHT22;1872;51.406;6.856;2023-11-18T07:08:54;5.50;99.90
3713;DHT22;1872;51.406;6.856;2023-11-18T07:11:20;5.50;99.90
3713;DHT22;1872;51.406;6.856;2023-11-18T07:13:47;5.50;99.90
3713;DHT22;1872;51.406;6.856;2023-11-18T07:16:13;5.50;99.90
3713;DHT22;1872;51.406;6.856;2023-11-18T07:18:40;5.50;99.90
3713;DHT22;1872;51.406;6.856;2023-11-18T07:21:08;5.60;99.90
3713;DHT22;1872;51.406;6.856;2023-11-18T07:23:35;5.60;99.90
3713;DHT22;1872;51.406;6.856;2023-11-18T07:26:01;5.60;99.90
3713;DHT22;1872;51.406;6.856;2023-11-18T07:28:27;5.60;99.90
3713;DHT22;1872;51.406;6.856;2023-11-18T07:30:53;5.60;99.90
3713;DHT22;1872;51.406;6.856;2023-11-18T07:33:20;5.70;99.90
3713;DHT22;1872;51.406;6.856;2023-11-18T07:35:47;5.70;99.90
3713;DHT22;1872;51.406;6.856;2023-11-18T07:38:15;5.70;99.90
3713;DHT22;1872;51.406;6.856;2023-11-18T07:40:41;5.70;99.90
3713;DHT22;1872;51.406;6.856;2023-11-18T07:43:24;5.70;99.90
3713;DHT22;1872;51.406;6.856;2023-11-18T07:45:52;5.70;99.90
3713;DHT22;1872;51.406;6.856;2023-11-18T07:48:19;5.80;99.90
3713;DHT22;1872;51.406;6.856;2023-11-18T07:50:46;5.80;99.90
3713;DHT22;1872;51.406;6.856;2023-11-18T07:53:30;5.80;99.90
3713;DHT22;1872;51.406;6.856;2023-11-18T07:55:57;5.90;99.90
3713;DHT22;1872;51.406;6.856;2023-11-18T07:58:23;5.90;99.90
3713;DHT22;1872;51.406;6.856;2023-11-18T08:00:50;5.90;99.90
3713;DHT22;1872;51.406;6.856;2023-11-18T08:03:19;6.00;99.90
3713;DHT22;1872;51.406;6.856;2023-11-18T08:05:46;6.00;99.90
3713;DHT22;1872;51.406;6.856;2023-11-18T08:08:14;6.00;99.90
3713;DHT22;1872;51.406;6.856;2023-11-18T08:10:44;6.00;99.90
3713;DHT22;1872;51.406;6.856;2023-11-18T08:13:11;6.10;99.90
3713;DHT22;1872;51.406;6.856;2023-11-18T08:15:42;6.10;99.90
3713;DHT22;1872;51.406;6.856;2023-11-18T08:18:08;6.20;99.90
3713;DHT22;1872;51.406;6.856;2023-11-18T08:20:36;6.20;99.90
3713;DHT22;1872;51.406;6.856;2023-11-18T08:23:01;6.20;99.90
3713;DHT22;1872;51.406;6.856;2023-11-18T08:25:27;6.20;99.90
3713;DHT22;1872;51.406;6.856;2023-11-18T08:27:53;6.20;99.90
3713;DHT22;1872;51.406;6.856;2023-11-18T08:30:18;6.30;99.90
3713;DHT22;1872;51.406;6.856;2023-11-18T08:32:46;6.30;99.90
3713;DHT22;1872;51.406;6.856;2023-11-18T08:35:12;6.30;99.90
3713;DHT22;1872;51.406;6.856;2023-11-18T08:37:42;6.40;99.90
3713;DHT22;1872;51.406;6.856;2023-11-18T08:40:08;6.40;99.90
3713;DHT22;1872;51.406;6.856;2023-11-18T08:42:58;6.40;99.90
3713;DHT22;1872;51.406;6.856;2023-11-18T08:45:28;6.50;99.90
3713;DHT22;1872;51.406;6.856;2023-11-18T08:48:00;6.50;99.90
3713;DHT22;1872;51.406;6.856;2023-11-18T08:50:34;6.50;99.90
3713;DHT22;1872;51.406;6.856;2023-11-18T08:53:01;6.50;99.90
3713;DHT22;1872;51.406;6.856;2023-11-18T08:55:31;6.50;99.90
3713;DHT22;1872;51.406;6.856;2023-11-18T08:58:10;6.50;99.90
3713;DHT22;1872;51.406;6.856;2023-11-18T09:00:47;6.60;99.90
3713;DHT22;1872;51.406;6.856;2023-11-18T09:03:17;6.60;99.90
3713;DHT22;1872;51.406;6.856;2023-11-18T09:05:46;6.60;99.90
3713;DHT22;1872;51.406;6.856;2023-11-18T09:08:28;6.70;99.90
3713;DHT22;1872;51.406;6.856;2023-11-18T09:11:02;6.70;99.90
3713;DHT22;1872;51.406;6.856;2023-11-18T09:13:30;6.70;99.90
3713;DHT22;1872;51.406;6.856;2023-11-18T09:16:02;6.80;99.90
3713;DHT22;1872;51.406;6.856;2023-11-18T09:18:31;6.80;99.90
3713;DHT22;1872;51.406;6.856;2023-11-18T09:20:58;6.80;99.90
3713;DHT22;1872;51.406;6.856;2023-11-18T09:23:28;6.80;99.90
3713;DHT22;1872;51.406;6.856;2023-11-18T09:25:54;6.80;99.90
3713;DHT22;1872;51.406;6.856;2023-11-18T09:28:21;6.90;99.90
3713;DHT22;1872;51.406;6.856;2023-11-18T09:30:50;6.90;99.90
3713;DHT22;1872;51.406;6.856;2023-11-18T09:33:20;7.00;99.90
3713;DHT22;1872;51.406;6.856;2023-11-18T09:38:29;7.10;99.90
3713;DHT22;1872;51.406;6.856;2023-11-18T09:40:59;7.10;99.90
3713;DHT22;1872;51.406;6.856;2023-11-18T09:43:32;7.20;99.90
3713;DHT22;1872;51.406;6.856;2023-11-18T09:46:06;7.20;99.90
3713;DHT22;1872;51.406;6.856;2023-11-18T09:51:57;7.60;99.90
3713;DHT22;1872;51.406;6.856;2023-11-18T09:54:27;7.70;99.90
3713;DHT22;1872;51.406;6.856;2023-11-18T09:57:04;7.70;99.90
3713;DHT22;1872;51.406;6.856;2023-11-18T10:00:03;7.80;99.90
3713;DHT22;1872;51.406;6.856;2023-11-18T10:02:48;7.90;99.90
3713;DHT22;1872;51.406;6.856;2023-11-18T10:05:22;8.00;99.90
3713;DHT22;1872;51.406;6.856;2023-11-18T10:08:08;8.00;99.90
3713;DHT22;1872;51.406;6.856;2023-11-18T10:10:56;7.90;99.90
3713;DHT22;1872;51.406;6.856;2023-11-18T10:13:42;7.80;99.90
3713;DHT22;1872;51.406;6.856;2023-11-18T10:16:09;7.70;99.90
3713;DHT22;1872;51.406;6.856;2023-11-18T10:18:38;7.70;99.90
3713;DHT22;1872;51.406;6.856;2023-11-18T10:21:10;7.70;99.90
3713;DHT22;1872;51.406;6.856;2023-11-18T10:23:39;7.70;99.90
3713;DHT22;1872;51.406;6.856;2023-11-18T10:26:07;7.80;99.90
3713;DHT22;1872;51.406;6.856;2023-11-18T10:28:35;7.80;99.90
3713;DHT22;1872;51.406;6.856;2023-11-18T10:31:09;7.90;99.90
3713;DHT22;1872;51.406;6.856;2023-11-18T10:33:39;7.90;99.90
3713;DHT22;1872;51.406;6.856;2023-11-18T10:36:17;7.90;99.90
3713;DHT22;1872;51.406;6.856;2023-11-18T10:38:48;8.00;99.90
3713;DHT22;1872;51.406;6.856;2023-11-18T10:41:19;8.10;99.90
3713;DHT22;1872;51.406;6.856;2023-11-18T10:43:45;8.10;99.90
3713;DHT22;1872;51.406;6.856;2023-11-18T10:46:12;8.10;99.90
3713;DHT22;1872;51.406;6.856;2023-11-18T10:48:48;8.10;99.90
3713;DHT22;1872;51.406;6.856;2023-11-18T10:51:17;8.00;99.90
3713;DHT22;1872;51.406;6.856;2023-11-18T10:53:51;8.00;99.90
3713;DHT22;1872;51.406;6.856;2023-11-18T10:56:27;8.00;99.90
3713;DHT22;1872;51.406;6.856;2023-11-18T10:59:14;8.00;99.90
3713;DHT22;1872;51.406;6.856;2023-11-18T11:01:43;8.00;99.90
3713;DHT22;1872;51.406;6.856;2023-11-18T11:04:15;8.00;99.90
3713;DHT22;1872;51.406;6.856;2023-11-18T11:06:49;8.00;99.90
3713;DHT22;1872;51.406;6.856;2023-11-18T11:09:23;8.00;99.90
3713;DHT22;1872;51.406;6.856;2023-11-18T11:12:07;8.10;99.90
3713;DHT22;1872;51.406;6.856;2023-11-18T11:14:50;8.00;99.90
3713;DHT22;1872;51.406;6.856;2023-11-18T11:17:20;8.10;99.90
3713;DHT22;1872;51.406;6.856;2023-11-18T11:20:08;8.20;99.90
3713;DHT22;1872;51.406;6.856;2023-11-18T11:25:58;8.10;99.90
3713;DHT22;1872;51.406;6.856;2023-11-18T11:28:53;8.10;99.90
3713;DHT22;1872;51.406;6.856;2023-11-18T11:31:30;8.10;99.90
3713;DHT22;1872;51.406;6.856;2023-11-18T11:34:02;8.00;99.90
3713;DHT22;1872;51.406;6.856;2023-11-18T11:36:37;8.00;99.90
3713;DHT22;1872;51.406;6.856;2023-11-18T11:39:08;8.00;99.90
3713;DHT22;1872;51.406;6.856;2023-11-18T11:41:51;8.00;99.90
3713;DHT22;1872;51.406;6.856;2023-11-18T11:44:17;8.00;99.90
3713;DHT22;1872;51.406;6.856;2023-11-18T11:46:47;7.90;99.90
3713;DHT22;1872;51.406;6.856;2023-11-18T11:49:20;8.00;99.90
3713;DHT22;1872;51.406;6.856;2023-11-18T11:51:57;8.00;99.90
3713;DHT22;1872;51.406;6.856;2023-11-18T11:54:31;8.00;99.90
3713;DHT22;1872;51.406;6.856;2023-11-18T11:57:02;8.00;99.90
3713;DHT22;1872;51.406;6.856;2023-11-18T12:02:15;8.00;99.90
3713;DHT22;1872;51.406;6.856;2023-11-18T12:04:51;8.00;99.90
3713;DHT22;1872;51.406;6.856;2023-11-18T12:07:24;8.00;99.90
3713;DHT22;1872;51.406;6.856;2023-11-18T12:09:59;8.00;99.90
3713;DHT22;1872;51.406;6.856;2023-11-18T12:12:27;8.00;99.90
3713;DHT22;1872;51.406;6.856;2023-11-18T12:14:58;8.10;99.90
3713;DHT22;1872;51.406;6.856;2023-11-18T12:20:43;8.10;99.90
3713;DHT22;1872;51.406;6.856;2023-11-18T12:23:22;8.20;99.90
3713;DHT22;1872;51.406;6.856;2023-11-18T12:25:51;8.20;99.90
3713;DHT22;1872;51.406;6.856;2023-11-18T12:28:25;8.20;99.90
3713;DHT22;1872;51.406;6.856;2023-11-18T12:30:54;8.10;99.90
3713;DHT22;1872;51.406;6.856;2023-11-18T12:33:24;8.10;99.90
3713;DHT22;1872;51.406;6.856;2023-11-18T12:41:36;8.10;99.90
3713;DHT22;1872;51.406;6.856;2023-11-18T12:44:29;8.00;99.90
3713;DHT22;1872;51.406;6.856;2023-11-18T12:47:00;8.10;99.90
3713;DHT22;1872;51.406;6.856;2023-11-18T12:49:47;8.10;99.90
3713;DHT22;1872;51.406;6.856;2023-11-18T12:52:21;8.10;99.90
3713;DHT22;1872;51.406;6.856;2023-11-18T12:54:47;8.10;99.90
3713;DHT22;1872;51.406;6.856;2023-11-18T12:57:36;8.10;99.90
3713;DHT22;1872;51.406;6.856;2023-11-18T13:00:05;8.10;99.90
3713;DHT22;1872;51.406;6.856;2023-11-18T13:02:36;8.10;99.90
3713;DHT22;1872;51.406;6.856;2023-11-18T13:05:07;8.10;99.90
3713;DHT22;1872;51.406;6.856;2023-11-18T13:07:35;8.10;99.90
3713;DHT22;1872;51.406;6.856;2023-11-18T13:10:02;8.20;99.90
3713;DHT22;1872;51.406;6.856;2023-11-18T13:12:31;8.20;99.90
3713;DHT22;1872;51.406;6.856;2023-11-18T13:14:57;8.20;99.90
3713;DHT22;1872;51.406;6.856;2023-11-18T13:17:22;8.30;99.90
3713;DHT22;1872;51.406;6.856;2023-11-18T13:19:48;8.30;99.90
3713;DHT22;1872;51.406;6.856;2023-11-18T13:22:16;8.30;99.90
3713;DHT22;1872;51.406;6.856;2023-11-18T13:24:45;8.30;99.90
3713;DHT22;1872;51.406;6.856;2023-11-18T13:27:16;8.30;99.90
3713;DHT22;1872;51.406;6.856;2023-11-18T13:29:46;8.30;99.90
3713;DHT22;1872;51.406;6.856;2023-11-18T13:32:17;8.30;99.90
3713;DHT22;1872;51.406;6.856;2023-11-18T13:34:43;8.30;99.90
3713;DHT22;1872;51.406;6.856;2023-11-18T13:37:10;8.30;99.90
3713;DHT22;1872;51.406;6.856;2023-11-18T13:39:39;8.40;99.90
3713;DHT22;1872;51.406;6.856;2023-11-18T13:42:24;8.40;99.90
3713;DHT22;1872;51.406;6.856;2023-11-18T13:45:00;8.50;99.90
3713;DHT22;1872;51.406;6.856;2023-11-18T13:47:28;8.50;99.90
3713;DHT22;1872;51.406;6.856;2023-11-18T13:49:54;8.50;99.90
3713;DHT22;1872;51.406;6.856;2023-11-18T13:52:21;8.50;99.90
3713;DHT22;1872;51.406;6.856;2023-11-18T13:54:48;8.50;99.90
3713;DHT22;1872;51.406;6.856;2023-11-18T13:57:16;8.60;99.90
3713;DHT22;1872;51.406;6.856;2023-11-18T13:59:44;8.70;99.90
3713;DHT22;1872;51.406;6.856;2023-11-18T14:02:11;8.60;99.90
3713;DHT22;1872;51.406;6.856;2023-11-18T14:04:39;8.70;99.90
3713;DHT22;1872;51.406;6.856;2023-11-18T14:07:05;8.80;99.90
3713;DHT22;1872;51.406;6.856;2023-11-18T14:09:34;8.80;99.90
3713;DHT22;1872;51.406;6.856;2023-11-18T14:12:10;8.80;99.90
3713;DHT22;1872;51.406;6.856;2023-11-18T14:14:36;8.70;99.90
3713;DHT22;1872;51.406;6.856;2023-11-18T14:17:06;8.80;99.90
3713;DHT22;1872;51.406;6.856;2023-11-18T14:19:32;8.80;99.90
3713;DHT22;1872;51.406;6.856;2023-11-18T14:22:03;8.90;99.90
3713;DHT22;1872;51.406;6.856;2023-11-18T14:24:34;9.00;99.90
3713;DHT22;1872;51.406;6.856;2023-11-18T14:27:00;9.10;99.90
3713;DHT22;1872;51.406;6.856;2023-11-18T14:29:26;9.00;99.90
3713;DHT22;1872;51.406;6.856;2023-11-18T14:31:53;8.90;99.90
3713;DHT22;1872;51.406;6.856;2023-11-18T14:34:19;8.80;99.90
3713;DHT22;1872;51.406;6.856;2023-11-18T14:36:45;8.70;99.90
3713;DHT22;1872;51.406;6.856;2023-11-18T14:39:12;8.70;99.90
3713;DHT22;1872;51.406;6.856;2023-11-18T14:41:43;8.70;99.90
3713;DHT22;1872;51.406;6.856;2023-11-18T14:44:09;8.60;99.90
3713;DHT22;1872;51.406;6.856;2023-11-18T14:46:35;8.60;99.90
3713;DHT22;1872;51.406;6.856;2023-11-18T14:49:04;8.50;99.90
3713;DHT22;1872;51.406;6.856;2023-11-18T14:51:33;8.40;99.90
3713;DHT22;1872;51.406;6.856;2023-11-18T14:53:58;8.40;99.90
3713;DHT22;1872;51.406;6.856;2023-11-18T14:56:25;8.40;99.90
3713;DHT22;1872;51.406;6.856;2023-11-18T14:58:51;8.40;99.90
3713;DHT22;1872;51.406;6.856;2023-11-18T15:01:18;8.50;99.90
3713;DHT22;1872;51.406;6.856;2023-11-18T15:03:45;8.50;99.90
3713;DHT22;1872;51.406;6.856;2023-11-18T15:06:11;8.50;99.90
3713;DHT22;1872;51.406;6.856;2023-11-18T15:08:38;8.50;99.90
3713;DHT22;1872;51.406;6.856;2023-11-18T15:11:07;8.50;99.90
3713;DHT22;1872;51.406;6.856;2023-11-18T15:13:33;8.50;99.90
3713;DHT22;1872;51.406;6.856;2023-11-18T15:15:58;8.40;99.90
3713;DHT22;1872;51.406;6.856;2023-11-18T15:18:24;8.50;99.90
3713;DHT22;1872;51.406;6.856;2023-11-18T15:20:50;8.40;99.90
3713;DHT22;1872;51.406;6.856;2023-11-18T15:23:18;8.40;99.90
3713;DHT22;1872;51.406;6.856;2023-11-18T15:25:47;8.40;99.90
3713;DHT22;1872;51.406;6.856;2023-11-18T15:28:16;8.40;99.90
3713;DHT22;1872;51.406;6.856;2023-11-18T15:30:42;8.40;99.90
3713;DHT22;1872;51.406;6.856;2023-11-18T15:33:10;8.40;99.90
3713;DHT22;1872;51.406;6.856;2023-11-18T15:35:39;8.30;99.90
3713;DHT22;1872;51.406;6.856;2023-11-18T15:38:08;8.30;99.90
3713;DHT22;1872;51.406;6.856;2023-11-18T15:40:37;8.40;99.90
3713;DHT22;1872;51.406;6.856;2023-11-18T15:43:03;8.60;99.90
3713;DHT22;1872;51.406;6.856;2023-11-18T15:45:32;8.60;99.90
3713;DHT22;1872;51.406;6.856;2023-11-18T15:47:58;8.60;99.90
3713;DHT22;1872;51.406;6.856;2023-11-18T15:50:33;8.60;99.90
3713;DHT22;1872;51.406;6.856;2023-11-18T15:53:03;8.50;99.90
3713;DHT22;1872;51.406;6.856;2023-11-18T15:55:29;8.50;99.90
3713;DHT22;1872;51.406;6.856;2023-11-18T15:57:56;8.60;99.90
3713;DHT22;1872;51.406;6.856;2023-11-18T16:00:26;8.70;99.90
3713;DHT22;1872;51.406;6.856;2023-11-18T16:02:54;8.70;99.90
3713;DHT22;1872;51.406;6.856;2023-11-18T16:05:21;8.70;99.90
3713;DHT22;1872;51.406;6.856;2023-11-18T16:07:52;8.60;99.90
3713;DHT22;1872;51.406;6.856;2023-11-18T16:10:21;8.60;99.90
3713;DHT22;1872;51.406;6.856;2023-11-18T16:12:48;8.50;99.90
3713;DHT22;1872;51.406;6.856;2023-11-18T16:15:14;8.40;99.90
3713;DHT22;1872;51.406;6.856;2023-11-18T16:17:41;8.40;99.90
3713;DHT22;1872;51.406;6.856;2023-11-18T16:20:08;8.40;99.90
3713;DHT22;1872;51.406;6.856;2023-11-18T16:22:34;8.50;99.90
3713;DHT22;1872;51.406;6.856;2023-11-18T16:25:00;8.50;99.90
3713;DHT22;1872;51.406;6.856;2023-11-18T16:27:26;8.50;99.90
3713;DHT22;1872;51.406;6.856;2023-11-18T16:29:52;8.80;99.90
3713;DHT22;1872;51.406;6.856;2023-11-18T16:32:17;8.90;99.90
3713;DHT22;1872;51.406;6.856;2023-11-18T16:34:43;9.10;99.90
3713;DHT22;1872;51.406;6.856;2023-11-18T16:37:09;9.10;99.90
3713;DHT22;1872;51.406;6.856;2023-11-18T16:39:35;9.10;99.90
3713;DHT22;1872;51.406;6.856;2023-11-18T16:42:04;9.00;99.90
3713;DHT22;1872;51.406;6.856;2023-11-18T16:47:05;8.80;99.90
3713;DHT22;1872;51.406;6.856;2023-11-18T16:49:32;8.70;99.90
3713;DHT22;1872;51.406;6.856;2023-11-18T16:51:57;8.50;99.90
3713;DHT22;1872;51.406;6.856;2023-11-18T16:54:27;8.50;99.90
3713;DHT22;1872;51.406;6.856;2023-11-18T16:56:55;8.40;99.90